sensor_id;sensor_type;location;lat;lon;timestamp;temperature;humidity
26053;DHT22;13826;51.186;4.450;2022-11-04T00:01:33;10.70;99.90
26053;DHT22;13826;51.186;4.450;2022-11-04T00:03:58;10.70;99.90
26053;DHT22;13826;51.186;4.450;2022-11-04T00:06:24;10.70;99.90
26053;DHT22;13826;51.186;4.450;2022-11-04T00:08:54;10.70;99.90
26053;DHT22;13826;51.186;4.450;2022-11-04T00:11:21;10.60;99.90
26053;DHT22;13826;51.186;4.450;2022-11-04T00:14:06;10.50;99.90
26053;DHT22;13826;51.186;4.450;2022-11-04T00:16:32;10.50;99.90
26053;DHT22;13826;51.186;4.450;2022-11-04T00:19:16;10.50;99.90
26053;DHT22;13826;51.186;4.450;2022-11-04T00:21:41;10.70;99.90
26053;DHT22;13826;51.186;4.450;2022-11-04T00:24:26;10.60;99.60
26053;DHT22;13826;51.186;4.450;2022-11-04T00:27:16;10.50;99.90
26053;DHT22;13826;51.186;4.450;2022-11-04T00:30:01;10.40;99.80
26053;DHT22;13826;51.186;4.450;2022-11-04T00:32:27;10.40;99.90
26053;DHT22;13826;51.186;4.450;2022-11-04T00:35:12;10.40;99.90
26053;DHT22;13826;51.186;4.450;2022-11-04T00:37:39;10.40;99.80
26053;DHT22;13826;51.186;4.450;2022-11-04T00:40:06;10.50;99.70
26053;DHT22;13826;51.186;4.450;2022-11-04T00:42:32;10.40;99.60
26053;DHT22;13826;51.186;4.450;2022-11-04T00:44:58;10.30;99.90
26053;DHT22;13826;51.186;4.450;2022-11-04T00:47:24;10.40;99.60
26053;DHT22;13826;51.186;4.450;2022-11-04T00:49:50;10.40;99.50
26053;DHT22;13826;51.186;4.450;2022-11-04T00:52:16;10.40;99.20
26053;DHT22;13826;51.186;4.450;2022-11-04T00:54:41;10.50;98.70
26053;DHT22;13826;51.186;4.450;2022-11-04T00:57:13;10.40;98.30
26053;DHT22;13826;51.186;4.450;2022-11-04T00:59:39;10.40;98.20
26053;DHT22;13826;51.186;4.450;2022-11-04T01:02:06;10.40;98.10
26053;DHT22;13826;51.186;4.450;2022-11-04T01:04:32;10.30;98.10
26053;DHT22;13826;51.186;4.450;2022-11-04T01:06:58;10.30;98.00
26053;DHT22;13826;51.186;4.450;2022-11-04T01:09:24;10.40;98.10
26053;DHT22;13826;51.186;4.450;2022-11-04T01:11:50;10.30;98.30
26053;DHT22;13826;51.186;4.450;2022-11-04T01:14:15;10.30;98.20
26053;DHT22;13826;51.186;4.450;2022-11-04T01:16:41;10.30;98.20
26053;DHT22;13826;51.186;4.450;2022-11-04T01:19:08;10.40;98.50
26053;DHT22;13826;51.186;4.450;2022-11-04T01:21:33;10.40;97.90
26053;DHT22;13826;51.186;4.450;2022-11-04T01:23:59;10.40;97.80
26053;DHT22;13826;51.186;4.450;2022-11-04T01:26:25;10.40;97.90
26053;DHT22;13826;51.186;4.450;2022-11-04T01:28:53;10.50;97.80
26053;DHT22;13826;51.186;4.450;2022-11-04T01:31:21;10.60;97.50
26053;DHT22;13826;51.186;4.450;2022-11-04T01:33:48;10.50;97.70
26053;DHT22;13826;51.186;4.450;2022-11-04T01:36:14;10.50;97.80
26053;DHT22;13826;51.186;4.450;2022-11-04T01:38:40;10.40;98.20
26053;DHT22;13826;51.186;4.450;2022-11-04T01:41:07;10.40;98.90
26053;DHT22;13826;51.186;4.450;2022-11-04T01:43:52;10.40;99.20
26053;DHT22;13826;51.186;4.450;2022-11-04T01:48:57;10.50;98.50
26053;DHT22;13826;51.186;4.450;2022-11-04T01:51:24;10.40;98.00
26053;DHT22;13826;51.186;4.450;2022-11-04T01:53:54;10.50;98.30
26053;DHT22;13826;51.186;4.450;2022-11-04T01:56:21;10.50;97.60
26053;DHT22;13826;51.186;4.450;2022-11-04T01:58:50;10.50;97.90
26053;DHT22;13826;51.186;4.450;2022-11-04T02:01:17;10.60;97.60
26053;DHT22;13826;51.186;4.450;2022-11-04T02:03:53;10.60;96.70
26053;DHT22;13826;51.186;4.450;2022-11-04T02:06:21;10.80;96.70
26053;DHT22;13826;51.186;4.450;2022-11-04T02:08:47;10.70;95.90
26053;DHT22;13826;51.186;4.450;2022-11-04T02:11:14;10.80;95.00
26053;DHT22;13826;51.186;4.450;2022-11-04T02:14:00;10.90;94.90
26053;DHT22;13826;51.186;4.450;2022-11-04T02:16:44;10.90;94.80
26053;DHT22;13826;51.186;4.450;2022-11-04T02:30:17;10.90;93.70
26053;DHT22;13826;51.186;4.450;2022-11-04T02:32:51;11.00;93.30
26053;DHT22;13826;51.186;4.450;2022-11-04T02:35:37;10.90;93.60
26053;DHT22;13826;51.186;4.450;2022-11-04T02:38:11;10.80;94.20
26053;DHT22;13826;51.186;4.450;2022-11-04T02:40:43;10.90;94.10
26053;DHT22;13826;51.186;4.450;2022-11-04T02:46:15;10.90;93.00
26053;DHT22;13826;51.186;4.450;2022-11-04T02:48:49;10.90;92.80
26053;DHT22;13826;51.186;4.450;2022-11-04T02:51:30;10.90;93.30
26053;DHT22;13826;51.186;4.450;2022-11-04T02:56:47;10.80;93.60
26053;DHT22;13826;51.186;4.450;2022-11-04T02:59:39;10.80;93.60
26053;DHT22;13826;51.186;4.450;2022-11-04T03:02:04;10.90;93.00
26053;DHT22;13826;51.186;4.450;2022-11-04T03:04:35;10.90;91.50
26053;DHT22;13826;51.186;4.450;2022-11-04T03:07:03;10.90;93.00
26053;DHT22;13826;51.186;4.450;2022-11-04T03:09:32;10.90;92.80
26053;DHT22;13826;51.186;4.450;2022-11-04T03:12:03;10.90;91.40
26053;DHT22;13826;51.186;4.450;2022-11-04T03:14:36;11.10;89.90
26053;DHT22;13826;51.186;4.450;2022-11-04T03:17:08;11.10;89.40
26053;DHT22;13826;51.186;4.450;2022-11-04T03:19:43;11.10;88.00
26053;DHT22;13826;51.186;4.450;2022-11-04T03:22:16;11.10;89.20
26053;DHT22;13826;51.186;4.450;2022-11-04T03:24:43;11.00;89.30
26053;DHT22;13826;51.186;4.450;2022-11-04T03:32:27;11.00;89.30
26053;DHT22;13826;51.186;4.450;2022-11-04T03:34:57;11.10;90.10
26053;DHT22;13826;51.186;4.450;2022-11-04T03:37:22;11.10;88.10
26053;DHT22;13826;51.186;4.450;2022-11-04T03:39:48;11.10;89.10
26053;DHT22;13826;51.186;4.450;2022-11-04T03:42:15;11.10;89.40
26053;DHT22;13826;51.186;4.450;2022-11-04T03:44:49;11.00;90.30
26053;DHT22;13826;51.186;4.450;2022-11-04T03:47:16;10.90;90.40
26053;DHT22;13826;51.186;4.450;2022-11-04T03:49:44;11.10;88.50
26053;DHT22;13826;51.186;4.450;2022-11-04T03:52:10;11.10;87.80
26053;DHT22;13826;51.186;4.450;2022-11-04T03:54:36;11.10;88.00
26053;DHT22;13826;51.186;4.450;2022-11-04T04:00:03;11.00;90.10
26053;DHT22;13826;51.186;4.450;2022-11-04T04:05:31;11.10;88.20
26053;DHT22;13826;51.186;4.450;2022-11-04T04:13:56;11.00;90.20
26053;DHT22;13826;51.186;4.450;2022-11-04T04:16:43;11.10;87.60
26053;DHT22;13826;51.186;4.450;2022-11-04T04:19:13;11.10;86.20
26053;DHT22;13826;51.186;4.450;2022-11-04T04:21:47;11.10;86.80
26053;DHT22;13826;51.186;4.450;2022-11-04T04:24:17;10.90;90.30
26053;DHT22;13826;51.186;4.450;2022-11-04T04:27:03;11.00;91.20
26053;DHT22;13826;51.186;4.450;2022-11-04T04:29:47;11.00;91.20
26053;DHT22;13826;51.186;4.450;2022-11-04T04:32:13;11.10;91.60
26053;DHT22;13826;51.186;4.450;2022-11-04T04:34:40;11.10;88.40
26053;DHT22;13826;51.186;4.450;2022-11-04T04:37:18;11.30;85.50
26053;DHT22;13826;51.186;4.450;2022-11-04T04:39:53;11.30;84.50
26053;DHT22;13826;51.186;4.450;2022-11-04T04:42:38;11.30;82.90
26053;DHT22;13826;51.186;4.450;2022-11-04T04:45:34;11.40;81.00
26053;DHT22;13826;51.186;4.450;2022-11-04T04:48:01;11.40;79.90
26053;DHT22;13826;51.186;4.450;2022-11-04T04:50:32;11.40;78.40
26053;DHT22;13826;51.186;4.450;2022-11-04T04:52:59;11.50;80.20
26053;DHT22;13826;51.186;4.450;2022-11-04T04:55:25;11.40;81.50
26053;DHT22;13826;51.186;4.450;2022-11-04T04:57:51;11.30;84.30
26053;DHT22;13826;51.186;4.450;2022-11-04T05:00:19;11.10;88.40
26053;DHT22;13826;51.186;4.450;2022-11-04T05:02:45;11.00;90.60
26053;DHT22;13826;51.186;4.450;2022-11-04T05:05:11;11.10;91.20
26053;DHT22;13826;51.186;4.450;2022-11-04T05:07:41;11.20;90.50
26053;DHT22;13826;51.186;4.450;2022-11-04T05:10:08;11.10;91.20
26053;DHT22;13826;51.186;4.450;2022-11-04T05:12:35;10.90;92.50
26053;DHT22;13826;51.186;4.450;2022-11-04T05:15:20;11.00;92.90
26053;DHT22;13826;51.186;4.450;2022-11-04T05:17:46;11.10;93.10
26053;DHT22;13826;51.186;4.450;2022-11-04T05:20:12;11.00;92.60
26053;DHT22;13826;51.186;4.450;2022-11-04T05:22:38;10.90;93.30
26053;DHT22;13826;51.186;4.450;2022-11-04T05:25:04;10.80;94.10
26053;DHT22;13826;51.186;4.450;2022-11-04T05:27:30;10.80;94.80
26053;DHT22;13826;51.186;4.450;2022-11-04T05:29:55;10.90;94.20
26053;DHT22;13826;51.186;4.450;2022-11-04T05:32:21;11.00;94.20
26053;DHT22;13826;51.186;4.450;2022-11-04T05:34:47;10.90;93.90
26053;DHT22;13826;51.186;4.450;2022-11-04T05:37:13;10.90;94.60
26053;DHT22;13826;51.186;4.450;2022-11-04T05:39:38;11.10;93.60
26053;DHT22;13826;51.186;4.450;2022-11-04T05:42:04;10.80;93.80
26053;DHT22;13826;51.186;4.450;2022-11-04T05:44:30;10.90;94.40
26053;DHT22;13826;51.186;4.450;2022-11-04T05:46:55;11.00;93.70
26053;DHT22;13826;51.186;4.450;2022-11-04T05:49:21;11.10;93.60
26053;DHT22;13826;51.186;4.450;2022-11-04T05:51:47;11.10;92.90
26053;DHT22;13826;51.186;4.450;2022-11-04T05:54:12;11.10;93.30
26053;DHT22;13826;51.186;4.450;2022-11-04T05:56:38;11.10;93.60
26053;DHT22;13826;51.186;4.450;2022-11-04T05:59:03;11.10;93.90
26053;DHT22;13826;51.186;4.450;2022-11-04T06:01:37;11.10;93.70
26053;DHT22;13826;51.186;4.450;2022-11-04T06:04:04;11.20;92.90
26053;DHT22;13826;51.186;4.450;2022-11-04T06:06:33;11.00;93.10
26053;DHT22;13826;51.186;4.450;2022-11-04T06:08:59;11.10;93.70
26053;DHT22;13826;51.186;4.450;2022-11-04T06:11:26;11.00;94.10
26053;DHT22;13826;51.186;4.450;2022-11-04T06:13:54;10.90;95.00
26053;DHT22;13826;51.186;4.450;2022-11-04T06:16:20;10.90;94.90
26053;DHT22;13826;51.186;4.450;2022-11-04T06:18:46;10.90;95.10
26053;DHT22;13826;51.186;4.450;2022-11-04T06:23:38;11.00;95.50
26053;DHT22;13826;51.186;4.450;2022-11-04T06:26:05;11.00;95.40
26053;DHT22;13826;51.186;4.450;2022-11-04T06:28:31;11.00;95.10
26053;DHT22;13826;51.186;4.450;2022-11-04T06:30:58;10.90;95.10
26053;DHT22;13826;51.186;4.450;2022-11-04T06:33:24;10.80;96.00
26053;DHT22;13826;51.186;4.450;2022-11-04T06:35:49;10.70;96.50
26053;DHT22;13826;51.186;4.450;2022-11-04T06:38:15;10.60;97.10
26053;DHT22;13826;51.186;4.450;2022-11-04T06:40:41;10.60;97.70
26053;DHT22;13826;51.186;4.450;2022-11-04T06:43:07;10.60;97.70
26053;DHT22;13826;51.186;4.450;2022-11-04T06:45:35;10.60;97.90
26053;DHT22;13826;51.186;4.450;2022-11-04T06:48:01;10.60;97.80
26053;DHT22;13826;51.186;4.450;2022-11-04T06:50:27;10.60;98.30
26053;DHT22;13826;51.186;4.450;2022-11-04T06:52:52;10.60;98.40
26053;DHT22;13826;51.186;4.450;2022-11-04T06:55:18;10.70;98.50
26053;DHT22;13826;51.186;4.450;2022-11-04T06:57:44;10.90;98.20
26053;DHT22;13826;51.186;4.450;2022-11-04T07:00:10;11.00;96.90
26053;DHT22;13826;51.186;4.450;2022-11-04T07:02:36;10.90;95.70
26053;DHT22;13826;51.186;4.450;2022-11-04T07:05:03;10.90;96.10
26053;DHT22;13826;51.186;4.450;2022-11-04T07:07:29;11.10;96.30
26053;DHT22;13826;51.186;4.450;2022-11-04T07:09:55;11.10;95.50
26053;DHT22;13826;51.186;4.450;2022-11-04T07:12:21;11.20;95.40
26053;DHT22;13826;51.186;4.450;2022-11-04T07:14:49;11.20;95.70
26053;DHT22;13826;51.186;4.450;2022-11-04T07:17:15;11.40;95.20
26053;DHT22;13826;51.186;4.450;2022-11-04T07:19:41;11.20;95.30
26053;DHT22;13826;51.186;4.450;2022-11-04T07:22:07;11.30;95.60
26053;DHT22;13826;51.186;4.450;2022-11-04T07:24:33;11.30;95.10
26053;DHT22;13826;51.186;4.450;2022-11-04T07:26:59;11.20;95.70
26053;DHT22;13826;51.186;4.450;2022-11-04T07:29:24;11.30;95.00
26053;DHT22;13826;51.186;4.450;2022-11-04T07:31:50;11.30;95.40
26053;DHT22;13826;51.186;4.450;2022-11-04T07:34:16;11.40;95.00
26053;DHT22;13826;51.186;4.450;2022-11-04T07:36:42;11.60;94.10
26053;DHT22;13826;51.186;4.450;2022-11-04T07:39:07;11.60;93.00
26053;DHT22;13826;51.186;4.450;2022-11-04T07:41:33;11.70;93.10
26053;DHT22;13826;51.186;4.450;2022-11-04T07:43:59;11.70;92.80
26053;DHT22;13826;51.186;4.450;2022-11-04T07:46:29;11.80;93.30
26053;DHT22;13826;51.186;4.450;2022-11-04T07:48:56;12.00;92.40
26053;DHT22;13826;51.186;4.450;2022-11-04T07:51:24;11.90;92.00
26053;DHT22;13826;51.186;4.450;2022-11-04T07:53:50;12.10;91.40
26053;DHT22;13826;51.186;4.450;2022-11-04T07:56:16;12.10;91.10
26053;DHT22;13826;51.186;4.450;2022-11-04T07:58:43;12.20;90.60
26053;DHT22;13826;51.186;4.450;2022-11-04T08:01:14;12.30;89.80
26053;DHT22;13826;51.186;4.450;2022-11-04T08:03:41;12.40;88.30
26053;DHT22;13826;51.186;4.450;2022-11-04T08:06:08;12.20;90.60
26053;DHT22;13826;51.186;4.450;2022-11-04T08:08:35;11.90;93.10
26053;DHT22;13826;51.186;4.450;2022-11-04T08:11:07;11.70;95.20
26053;DHT22;13826;51.186;4.450;2022-11-04T08:13:35;11.80;95.50
26053;DHT22;13826;51.186;4.450;2022-11-04T08:16:12;11.80;94.60
26053;DHT22;13826;51.186;4.450;2022-11-04T08:18:40;11.90;94.50
26053;DHT22;13826;51.186;4.450;2022-11-04T08:21:06;11.90;94.60
26053;DHT22;13826;51.186;4.450;2022-11-04T08:23:33;11.90;93.50
26053;DHT22;13826;51.186;4.450;2022-11-04T08:25:59;12.00;93.60
26053;DHT22;13826;51.186;4.450;2022-11-04T08:28:26;12.20;92.50
26053;DHT22;13826;51.186;4.450;2022-11-04T08:31:18;12.30;91.20
26053;DHT22;13826;51.186;4.450;2022-11-04T08:33:44;12.40;89.40
26053;DHT22;13826;51.186;4.450;2022-11-04T08:36:30;12.50;90.00
26053;DHT22;13826;51.186;4.450;2022-11-04T08:38:57;12.50;90.30
26053;DHT22;13826;51.186;4.450;2022-11-04T08:41:25;12.60;90.40
26053;DHT22;13826;51.186;4.450;2022-11-04T08:43:52;12.70;88.30
26053;DHT22;13826;51.186;4.450;2022-11-04T08:46:18;12.60;86.20
26053;DHT22;13826;51.186;4.450;2022-11-04T08:48:45;12.60;90.10
26053;DHT22;13826;51.186;4.450;2022-11-04T08:51:15;12.80;88.80
26053;DHT22;13826;51.186;4.450;2022-11-04T08:53:41;12.80;89.40
26053;DHT22;13826;51.186;4.450;2022-11-04T08:56:12;12.70;86.90
26053;DHT22;13826;51.186;4.450;2022-11-04T08:58:38;12.90;88.00
26053;DHT22;13826;51.186;4.450;2022-11-04T09:01:05;13.20;84.50
26053;DHT22;13826;51.186;4.450;2022-11-04T09:03:31;13.70;77.60
26053;DHT22;13826;51.186;4.450;2022-11-04T09:06:00;14.40;64.90
26053;DHT22;13826;51.186;4.450;2022-11-04T09:08:26;14.90;50.80
26053;DHT22;13826;51.186;4.450;2022-11-04T09:10:52;15.00;41.40
26053;DHT22;13826;51.186;4.450;2022-11-04T09:13:17;15.50;35.40
26053;DHT22;13826;51.186;4.450;2022-11-04T09:15:43;15.90;22.70
26053;DHT22;13826;51.186;4.450;2022-11-04T09:18:09;16.00;18.40
26053;DHT22;13826;51.186;4.450;2022-11-04T09:20:35;15.70;16.90
26053;DHT22;13826;51.186;4.450;2022-11-04T09:23:04;15.60;20.30
26053;DHT22;13826;51.186;4.450;2022-11-04T09:25:30;15.20;21.40
26053;DHT22;13826;51.186;4.450;2022-11-04T09:27:57;14.90;29.70
26053;DHT22;13826;51.186;4.450;2022-11-04T09:30:23;14.60;37.80
26053;DHT22;13826;51.186;4.450;2022-11-04T09:32:49;14.30;46.20
26053;DHT22;13826;51.186;4.450;2022-11-04T09:35:14;14.20;48.90
26053;DHT22;13826;51.186;4.450;2022-11-04T09:37:42;14.10;51.90
26053;DHT22;13826;51.186;4.450;2022-11-04T09:40:14;13.80;59.90
26053;DHT22;13826;51.186;4.450;2022-11-04T09:45:26;13.60;66.40
26053;DHT22;13826;51.186;4.450;2022-11-04T09:47:57;13.70;68.70
26053;DHT22;13826;51.186;4.450;2022-11-04T09:50:27;13.60;72.10
26053;DHT22;13826;51.186;4.450;2022-11-04T09:53:07;13.50;75.00
26053;DHT22;13826;51.186;4.450;2022-11-04T09:55:40;13.60;73.90
26053;DHT22;13826;51.186;4.450;2022-11-04T09:58:12;13.40;72.10
26053;DHT22;13826;51.186;4.450;2022-11-04T10:00:41;13.30;80.10
26053;DHT22;13826;51.186;4.450;2022-11-04T10:03:36;13.20;81.30
26053;DHT22;13826;51.186;4.450;2022-11-04T10:11:30;13.30;84.50
26053;DHT22;13826;51.186;4.450;2022-11-04T10:14:17;13.40;86.30
26053;DHT22;13826;51.186;4.450;2022-11-04T10:22:31;13.60;85.50
26053;DHT22;13826;51.186;4.450;2022-11-04T10:25:13;13.90;78.60
26053;DHT22;13826;51.186;4.450;2022-11-04T10:27:42;13.90;73.40
26053;DHT22;13826;51.186;4.450;2022-11-04T10:35:44;13.80;76.00
26053;DHT22;13826;51.186;4.450;2022-11-04T10:38:21;13.70;74.40
26053;DHT22;13826;51.186;4.450;2022-11-04T10:40:51;13.70;78.00
26053;DHT22;13826;51.186;4.450;2022-11-04T10:43:36;13.80;78.10
26053;DHT22;13826;51.186;4.450;2022-11-04T10:49:02;14.30;66.60
26053;DHT22;13826;51.186;4.450;2022-11-04T10:51:30;14.30;60.80
26053;DHT22;13826;51.186;4.450;2022-11-04T10:53:57;14.50;56.40
26053;DHT22;13826;51.186;4.450;2022-11-04T10:56:42;14.70;53.10
26053;DHT22;13826;51.186;4.450;2022-11-04T10:59:21;14.60;49.60
26053;DHT22;13826;51.186;4.450;2022-11-04T11:01:54;14.60;51.50
26053;DHT22;13826;51.186;4.450;2022-11-04T11:04:35;14.50;52.60
26053;DHT22;13826;51.186;4.450;2022-11-04T11:07:07;14.40;59.20
26053;DHT22;13826;51.186;4.450;2022-11-04T11:09:35;14.50;55.80
26053;DHT22;13826;51.186;4.450;2022-11-04T11:12:26;14.70;54.70
26053;DHT22;13826;51.186;4.450;2022-11-04T11:15:32;14.90;49.40
26053;DHT22;13826;51.186;4.450;2022-11-04T11:18:14;15.20;44.30
26053;DHT22;13826;51.186;4.450;2022-11-04T11:20:49;15.70;27.90
26053;DHT22;13826;51.186;4.450;2022-11-04T11:23:38;16.40;15.20
26053;DHT22;13826;51.186;4.450;2022-11-04T11:26:11;16.50;6.50
26053;DHT22;13826;51.186;4.450;2022-11-04T11:28:38;16.10;13.00
26053;DHT22;13826;51.186;4.450;2022-11-04T11:31:08;16.60;10.20
26053;DHT22;13826;51.186;4.450;2022-11-04T11:33:45;17.40;1.00
26053;DHT22;13826;51.186;4.450;2022-11-04T11:36:47;17.80;1.00
26053;DHT22;13826;51.186;4.450;2022-11-04T11:42:01;17.80;1.00
26053;DHT22;13826;51.186;4.450;2022-11-04T11:44:31;17.90;1.00
26053;DHT22;13826;51.186;4.450;2022-11-04T11:47:02;17.50;1.00
26053;DHT22;13826;51.186;4.450;2022-11-04T11:49:34;17.40;1.00
26053;DHT22;13826;51.186;4.450;2022-11-04T11:52:32;17.30;1.00
26053;DHT22;13826;51.186;4.450;2022-11-04T11:58:11;17.30;1.00
26053;DHT22;13826;51.186;4.450;2022-11-04T12:00:53;17.30;1.00
26053;DHT22;13826;51.186;4.450;2022-11-04T12:03:29;18.20;1.00
26053;DHT22;13826;51.186;4.450;2022-11-04T12:12:00;17.90;1.00
26053;DHT22;13826;51.186;4.450;2022-11-04T12:30:58;16.80;1.00
26053;DHT22;13826;51.186;4.450;2022-11-04T12:33:46;17.00;1.00
26053;DHT22;13826;51.186;4.450;2022-11-04T12:36:32;16.90;1.00
26053;DHT22;13826;51.186;4.450;2022-11-04T12:50:20;15.90;1.00
26053;DHT22;13826;51.186;4.450;2022-11-04T12:53:08;15.80;1.00
26053;DHT22;13826;51.186;4.450;2022-11-04T12:56:10;15.60;1.00
26053;DHT22;13826;51.186;4.450;2022-11-04T13:01:18;16.00;1.00
26053;DHT22;13826;51.186;4.450;2022-11-04T13:04:19;15.80;1.00
26053;DHT22;13826;51.186;4.450;2022-11-04T13:09:19;15.70;1.00
26053;DHT22;13826;51.186;4.450;2022-11-04T13:12:10;15.60;1.00
26053;DHT22;13826;51.186;4.450;2022-11-04T13:15:01;15.50;1.00
26053;DHT22;13826;51.186;4.450;2022-11-04T13:17:33;15.40;1.00
26053;DHT22;13826;51.186;4.450;2022-11-04T13:22:34;15.00;1.00
26053;DHT22;13826;51.186;4.450;2022-11-04T13:25:16;14.80;1.00
26053;DHT22;13826;51.186;4.450;2022-11-04T13:27:47;14.70;1.00
26053;DHT22;13826;51.186;4.450;2022-11-04T13:33:15;14.80;1.00
26053;DHT22;13826;51.186;4.450;2022-11-04T13:36:00;14.90;1.00
26053;DHT22;13826;51.186;4.450;2022-11-04T13:38:38;15.20;1.00
26053;DHT22;13826;51.186;4.450;2022-11-04T13:43:59;15.30;1.00
26053;DHT22;13826;51.186;4.450;2022-11-04T13:46:32;15.10;1.00
26053;DHT22;13826;51.186;4.450;2022-11-04T13:49:20;15.20;1.00
26053;DHT22;13826;51.186;4.450;2022-11-04T13:51:47;15.10;1.00
26053;DHT22;13826;51.186;4.450;2022-11-04T13:54:30;15.10;1.00
26053;DHT22;13826;51.186;4.450;2022-11-04T13:59:42;14.40;1.00
26053;DHT22;13826;51.186;4.450;2022-11-04T14:02:37;14.30;1.00
26053;DHT22;13826;51.186;4.450;2022-11-04T14:10:36;14.40;1.00
26053;DHT22;13826;51.186;4.450;2022-11-04T14:18:45;15.00;1.00
26053;DHT22;13826;51.186;4.450;2022-11-04T14:21:20;15.10;1.00
26053;DHT22;13826;51.186;4.450;2022-11-04T14:23:57;14.80;1.00
26053;DHT22;13826;51.186;4.450;2022-11-04T14:26:44;14.70;1.00
26053;DHT22;13826;51.186;4.450;2022-11-04T14:29:22;14.80;1.00
26053;DHT22;13826;51.186;4.450;2022-11-04T14:31:57;14.60;1.00
26053;DHT22;13826;51.186;4.450;2022-11-04T14:34:26;14.70;1.00
26053;DHT22;13826;51.186;4.450;2022-11-04T14:37:16;14.50;1.00
26053;DHT22;13826;51.186;4.450;2022-11-04T14:39:43;14.40;1.00
26053;DHT22;13826;51.186;4.450;2022-11-04T14:42:13;14.20;1.00
26053;DHT22;13826;51.186;4.450;2022-11-04T14:44:44;13.80;1.00
26053;DHT22;13826;51.186;4.450;2022-11-04T14:49:50;13.60;1.00
26053;DHT22;13826;51.186;4.450;2022-11-04T14:52:27;13.60;1.00
26053;DHT22;13826;51.186;4.450;2022-11-04T14:57:40;13.60;1.00
26053;DHT22;13826;51.186;4.450;2022-11-04T15:00:33;13.60;1.00
26053;DHT22;13826;51.186;4.450;2022-11-04T15:05:28;13.70;1.00
26053;DHT22;13826;51.186;4.450;2022-11-04T15:07:55;13.50;1.00
26053;DHT22;13826;51.186;4.450;2022-11-04T15:10:24;13.30;1.00
26053;DHT22;13826;51.186;4.450;2022-11-04T15:12:51;13.30;1.00
26053;DHT22;13826;51.186;4.450;2022-11-04T15:15:40;13.40;1.00
26053;DHT22;13826;51.186;4.450;2022-11-04T15:18:22;13.50;1.00
26053;DHT22;13826;51.186;4.450;2022-11-04T15:20:55;13.30;1.00
26053;DHT22;13826;51.186;4.450;2022-11-04T15:23:28;13.30;1.00
26053;DHT22;13826;51.186;4.450;2022-11-04T15:25:55;13.20;1.00
26053;DHT22;13826;51.186;4.450;2022-11-04T15:31:25;13.10;1.00
26053;DHT22;13826;51.186;4.450;2022-11-04T15:33:56;13.00;1.00
26053;DHT22;13826;51.186;4.450;2022-11-04T15:36:32;13.00;1.00
26053;DHT22;13826;51.186;4.450;2022-11-04T15:39:21;13.00;1.00
26053;DHT22;13826;51.186;4.450;2022-11-04T15:41:50;12.90;1.00
26053;DHT22;13826;51.186;4.450;2022-11-04T15:44:36;12.90;1.00
26053;DHT22;13826;51.186;4.450;2022-11-04T15:47:21;13.00;1.00
26053;DHT22;13826;51.186;4.450;2022-11-04T15:49:47;12.90;1.00
26053;DHT22;13826;51.186;4.450;2022-11-04T15:54:43;13.10;1.00
26053;DHT22;13826;51.186;4.450;2022-11-04T16:02:37;13.10;1.00
26053;DHT22;13826;51.186;4.450;2022-11-04T16:07:42;13.30;1.00
26053;DHT22;13826;51.186;4.450;2022-11-04T16:15:36;13.30;1.00
26053;DHT22;13826;51.186;4.450;2022-11-04T16:18:04;13.30;1.00
26053;DHT22;13826;51.186;4.450;2022-11-04T16:20:32;13.40;1.00
26053;DHT22;13826;51.186;4.450;2022-11-04T16:23:01;13.30;1.00
26053;DHT22;13826;51.186;4.450;2022-11-04T16:25:35;13.20;1.00
26053;DHT22;13826;51.186;4.450;2022-11-04T16:28:01;13.20;1.00
26053;DHT22;13826;51.186;4.450;2022-11-04T16:30:28;13.20;1.00
26053;DHT22;13826;51.186;4.450;2022-11-04T16:33:06;13.20;1.00
26053;DHT22;13826;51.186;4.450;2022-11-04T16:35:34;13.20;1.00
26053;DHT22;13826;51.186;4.450;2022-11-04T16:38:00;13.20;1.00
26053;DHT22;13826;51.186;4.450;2022-11-04T16:40:26;13.00;1.00
26053;DHT22;13826;51.186;4.450;2022-11-04T16:42:53;13.00;1.00
26053;DHT22;13826;51.186;4.450;2022-11-04T16:45:24;13.00;1.00
26053;DHT22;13826;51.186;4.450;2022-11-04T16:47:50;13.00;1.00
26053;DHT22;13826;51.186;4.450;2022-11-04T16:50:17;12.90;1.00
26053;DHT22;13826;51.186;4.450;2022-11-04T16:52:43;12.90;1.00
26053;DHT22;13826;51.186;4.450;2022-11-04T16:55:11;12.70;1.00
26053;DHT22;13826;51.186;4.450;2022-11-04T16:57:37;12.60;1.00
26053;DHT22;13826;51.186;4.450;2022-11-04T17:00:04;12.60;1.00
26053;DHT22;13826;51.186;4.450;2022-11-04T17:02:34;12.60;1.00
26053;DHT22;13826;51.186;4.450;2022-11-04T17:05:06;12.50;1.00
26053;DHT22;13826;51.186;4.450;2022-11-04T17:07:33;12.40;1.00
26053;DHT22;13826;51.186;4.450;2022-11-04T17:09:58;12.40;1.00
26053;DHT22;13826;51.186;4.450;2022-11-04T17:12:24;12.40;1.00
26053;DHT22;13826;51.186;4.450;2022-11-04T17:14:50;12.30;1.90
26053;DHT22;13826;51.186;4.450;2022-11-04T17:17:15;12.30;1.40
26053;DHT22;13826;51.186;4.450;2022-11-04T17:19:41;12.30;4.20
26053;DHT22;13826;51.186;4.450;2022-11-04T17:22:07;12.20;8.50
26053;DHT22;13826;51.186;4.450;2022-11-04T17:24:34;12.20;10.90
26053;DHT22;13826;51.186;4.450;2022-11-04T17:26:59;12.10;15.40
26053;DHT22;13826;51.186;4.450;2022-11-04T17:29:25;12.00;19.60
26053;DHT22;13826;51.186;4.450;2022-11-04T17:31:51;11.80;23.20
26053;DHT22;13826;51.186;4.450;2022-11-04T17:34:18;11.70;28.10
26053;DHT22;13826;51.186;4.450;2022-11-04T17:36:43;11.60;34.60
26053;DHT22;13826;51.186;4.450;2022-11-04T17:39:09;11.60;36.80
26053;DHT22;13826;51.186;4.450;2022-11-04T17:41:37;11.60;37.00
26053;DHT22;13826;51.186;4.450;2022-11-04T17:44:27;11.50;38.50
26053;DHT22;13826;51.186;4.450;2022-11-04T17:46:53;11.40;45.20
26053;DHT22;13826;51.186;4.450;2022-11-04T17:49:21;11.30;47.90
26053;DHT22;13826;51.186;4.450;2022-11-04T17:51:49;11.20;52.60
26053;DHT22;13826;51.186;4.450;2022-11-04T17:54:15;11.10;55.30
26053;DHT22;13826;51.186;4.450;2022-11-04T17:56:42;11.20;54.60
26053;DHT22;13826;51.186;4.450;2022-11-04T17:59:08;11.00;56.20
26053;DHT22;13826;51.186;4.450;2022-11-04T18:01:35;10.90;60.80
26053;DHT22;13826;51.186;4.450;2022-11-04T18:04:02;10.80;66.10
26053;DHT22;13826;51.186;4.450;2022-11-04T18:06:32;10.60;69.80
26053;DHT22;13826;51.186;4.450;2022-11-04T18:08:58;10.60;71.70
26053;DHT22;13826;51.186;4.450;2022-11-04T18:11:26;10.60;69.90
26053;DHT22;13826;51.186;4.450;2022-11-04T18:14:11;10.50;72.90
26053;DHT22;13826;51.186;4.450;2022-11-04T18:16:44;10.50;74.90
26053;DHT22;13826;51.186;4.450;2022-11-04T18:19:11;10.50;75.30
26053;DHT22;13826;51.186;4.450;2022-11-04T18:21:36;10.40;77.80
26053;DHT22;13826;51.186;4.450;2022-11-04T18:24:02;10.40;80.10
26053;DHT22;13826;51.186;4.450;2022-11-04T18:26:29;10.40;78.10
26053;DHT22;13826;51.186;4.450;2022-11-04T18:28:54;10.40;78.90
26053;DHT22;13826;51.186;4.450;2022-11-04T18:31:26;10.40;81.20
26053;DHT22;13826;51.186;4.450;2022-11-04T18:33:52;10.40;82.30